Time;durP1;ratioP1;P1;durP2;ratioP2;P2;SDS_P1;SDS_P2;PMS_P1;PMS_P2;Temp;Humidity;BMP_temperature;BMP_pressure;BME280_temperature;BME280_humidity;BME280_pressure;Samples;Min_cycle;Max_cycle;Signal;HPM_P1;HPM_P2
2021/05/26 00:01:11;;;;;;;10.47;2.27;;;12.90;99.90;;;;;;5085467;28;20188;-76
2021/05/26 00:03:37;;;;;;;9.70;2.23;;;12.90;99.90;;;;;;5071790;28;20643;-76
2021/05/26 00:06:03;;;;;;;10.50;2.30;;;13.00;99.90;;;;;;5091524;28;20179;-75
2021/05/26 00:08:33;;;;;;;15.17;3.20;;;13.00;99.90;;;;;;5071451;28;20203;-75
2021/05/26 00:11:01;;;;;;;17.43;2.73;;;13.00;99.90;;;;;;5087931;28;20256;-75
2021/05/26 00:13:27;;;;;;;13.87;2.87;;;13.00;99.90;;;;;;5074226;28;20209;-75
2021/05/26 00:15:54;;;;;;;12.00;3.30;;;13.00;99.90;;;;;;5091059;28;20234;-75
2021/05/26 00:18:20;;;;;;;18.30;3.30;;;13.00;99.90;;;;;;5087979;28;20203;-75
2021/05/26 00:20:47;;;;;;;12.83;2.87;;;12.90;99.90;;;;;;5069810;28;20659;-75
2021/05/26 00:23:14;;;;;;;11.80;3.17;;;12.80;99.90;;;;;;5084634;28;20177;-75
2021/05/26 00:25:40;;;;;;;18.10;3.40;;;12.80;99.90;;;;;;5088593;28;20220;-75
2021/05/26 00:28:05;;;;;;;15.40;3.37;;;12.80;99.90;;;;;;5090374;28;20224;-76
2021/05/26 00:30:34;;;;;;;13.97;3.37;;;12.80;99.90;;;;;;5051874;28;20220;-78
2021/05/26 00:33:00;;;;;;;12.70;3.00;;;12.90;99.90;;;;;;5074657;28;20640;-78
2021/05/26 00:35:26;;;;;;;12.20;2.80;;;12.90;99.90;;;;;;5059668;28;20265;-78
2021/05/26 00:37:51;;;;;;;13.13;2.67;;;12.80;99.90;;;;;;5089740;28;20710;-77
2021/05/26 00:40:17;;;;;;;10.20;2.53;;;12.70;99.90;;;;;;5093376;28;20271;-77
2021/05/26 00:42:44;;;;;;;6.87;2.10;;;12.70;99.90;;;;;;5090908;28;20180;-77
2021/05/26 00:45:10;;;;;;;9.83;2.33;;;12.60;99.90;;;;;;5090704;28;20237;-77
2021/05/26 00:47:43;;;;;;;9.73;2.10;;;12.50;99.90;;;;;;5093136;28;20175;-77
2021/05/26 00:50:12;;;;;;;8.87;1.80;;;12.40;99.90;;;;;;5088162;28;20195;-77
2021/05/26 00:52:38;;;;;;;12.97;2.13;;;12.30;99.90;;;;;;5084334;28;20180;-78
2021/05/26 00:55:06;;;;;;;7.00;1.73;;;12.40;99.90;;;;;;5073705;28;20179;-77
2021/05/26 00:57:35;;;;;;;6.33;1.90;;;12.30;99.90;;;;;;5074627;28;20703;-78
2021/05/26 01:00:00;;;;;;;9.50;1.80;;;12.20;99.90;;;;;;5087517;28;20204;-77
2021/05/26 01:02:26;;;;;;;8.30;1.73;;;12.10;99.90;;;;;;5090356;28;21212;-77
2021/05/26 01:04:52;;;;;;;6.37;1.60;;;12.10;99.90;;;;;;5089518;28;20183;-77
2021/05/26 01:07:18;;;;;;;8.20;2.10;;;12.10;99.90;;;;;;5089492;28;20196;-77
2021/05/26 01:09:43;;;;;;;7.70;2.07;;;12.10;99.90;;;;;;5071649;28;20183;-78
2021/05/26 01:12:09;;;;;;;7.07;1.87;;;12.10;99.90;;;;;;5069711;28;20190;-77
2021/05/26 01:14:35;;;;;;;6.30;1.60;;;12.20;99.90;;;;;;5087547;28;20168;-78
2021/05/26 01:17:03;;;;;;;7.70;1.90;;;12.10;99.90;;;;;;5054716;28;20190;-78
2021/05/26 01:19:28;;;;;;;8.03;1.80;;;12.10;99.90;;;;;;5090356;28;20238;-77
2021/05/26 01:21:54;;;;;;;8.13;1.77;;;12.20;99.90;;;;;;5071755;28;20183;-77
2021/05/26 01:24:21;;;;;;;6.90;1.77;;;12.20;99.90;;;;;;5090096;28;20191;-77
2021/05/26 01:26:47;;;;;;;6.90;1.50;;;12.20;99.90;;;;;;5071575;28;20178;-77
2021/05/26 01:29:15;;;;;;;7.93;1.53;;;12.10;99.90;;;;;;5069525;28;20190;-78
2021/05/26 01:31:42;;;;;;;7.93;1.70;;;12.10;99.90;;;;;;5053985;28;20183;-77
2021/05/26 01:34:09;;;;;;;7.70;1.90;;;12.00;99.90;;;;;;5073709;28;20248;-76
2021/05/26 01:36:42;;;;;;;6.70;1.50;;;12.00;99.90;;;;;;5073611;28;20233;-77
2021/05/26 01:39:08;;;;;;;9.33;1.63;;;12.00;99.90;;;;;;5092309;28;20236;-77
2021/05/26 01:41:34;;;;;;;6.23;1.70;;;12.00;99.90;;;;;;5074286;28;20185;-76
2021/05/26 01:44:02;;;;;;;5.17;1.83;;;12.00;99.90;;;;;;5071337;28;20188;-77
2021/05/26 01:46:28;;;;;;;6.77;1.80;;;12.00;99.90;;;;;;5073801;28;20217;-77
2021/05/26 01:48:53;;;;;;;6.43;2.10;;;11.90;99.90;;;;;;5069210;28;20212;-77
2021/05/26 01:51:20;;;;;;;6.73;2.43;;;11.90;99.90;;;;;;5067905;28;20176;-77
2021/05/26 01:53:46;;;;;;;9.83;2.70;;;11.90;99.90;;;;;;5088892;28;20440;-77
2021/05/26 01:56:23;;;;;;;6.27;2.03;;;11.70;99.90;;;;;;5072583;28;20232;-77
2021/05/26 01:59:06;;;;;;;7.63;2.47;;;11.80;99.90;;;;;;5071403;28;20553;-76
2021/05/26 02:01:33;;;;;;;7.87;2.50;;;11.90;99.90;;;;;;5091503;28;20211;-76
2021/05/26 02:04:04;;;;;;;7.37;2.50;;;12.00;99.90;;;;;;5066706;28;20707;-77
2021/05/26 02:06:31;;;;;;;8.43;2.70;;;12.00;99.90;;;;;;5056420;28;20183;-77
2021/05/26 02:08:57;;;;;;;9.43;2.90;;;12.00;99.90;;;;;;5088888;28;20593;-76
2021/05/26 02:14:11;;;;;;;8.23;3.13;;;11.90;99.90;;;;;;5076895;28;20733;-76
2021/05/26 02:16:37;;;;;;;8.30;3.37;;;11.90;99.90;;;;;;5087028;28;20275;-76
2021/05/26 02:19:04;;;;;;;7.37;2.57;;;11.90;99.90;;;;;;5069014;28;20232;-76
2021/05/26 02:21:30;;;;;;;10.67;2.80;;;11.80;99.90;;;;;;5053925;28;20622;-76
2021/05/26 02:23:57;;;;;;;8.80;2.70;;;11.80;99.90;;;;;;5069075;28;20274;-77
2021/05/26 02:26:24;;;;;;;9.97;2.87;;;11.70;99.90;;;;;;5068897;28;20274;-77
2021/05/26 02:28:50;;;;;;;6.00;2.30;;;11.70;99.90;;;;;;5071239;28;20187;-77
2021/05/26 02:31:18;;;;;;;7.07;2.40;;;11.70;99.90;;;;;;5064149;28;20168;-77
2021/05/26 02:33:45;;;;;;;6.40;2.37;;;11.60;99.90;;;;;;5067197;28;20538;-77
2021/05/26 02:36:11;;;;;;;6.70;2.20;;;11.50;99.90;;;;;;5089962;28;20180;-76
2021/05/26 02:38:37;;;;;;;10.73;2.40;;;11.50;99.90;;;;;;5073166;28;20210;-77
2021/05/26 02:41:03;;;;;;;9.20;2.40;;;11.50;99.90;;;;;;5070709;28;20183;-77
2021/05/26 02:43:30;;;;;;;9.83;3.00;;;11.50;99.90;;;;;;5071145;28;20191;-76
2021/05/26 02:45:55;;;;;;;8.23;2.80;;;11.50;99.90;;;;;;5088586;28;20180;-76
2021/05/26 02:48:21;;;;;;;7.00;2.67;;;11.60;99.90;;;;;;5088640;28;20616;-75
2021/05/26 02:50:47;;;;;;;11.43;3.47;;;11.50;99.90;;;;;;5070468;28;20240;-77
2021/05/26 02:53:14;;;;;;;12.17;4.00;;;11.40;99.90;;;;;;5071139;28;20206;-77
2021/05/26 02:55:41;;;;;;;13.43;3.77;;;11.40;99.90;;;;;;5072581;28;20196;-77
2021/05/26 02:58:25;;;;;;;14.00;4.57;;;11.50;99.90;;;;;;5072468;28;20237;-77
2021/05/26 03:01:20;;;;;;;13.47;4.33;;;11.50;99.90;;;;;;5036007;28;20259;-77
2021/05/26 03:03:58;;;;;;;13.97;4.87;;;11.50;99.90;;;;;;5070507;28;20282;-77
2021/05/26 03:06:30;;;;;;;18.07;5.57;;;11.50;99.90;;;;;;5090036;28;20176;-77
2021/05/26 03:08:56;;;;;;;15.80;5.37;;;11.50;99.90;;;;;;5085631;28;20253;-77
2021/05/26 03:11:28;;;;;;;16.07;5.80;;;11.40;99.90;;;;;;5071108;28;20172;-77
2021/05/26 03:14:07;;;;;;;18.40;6.20;;;11.50;99.90;;;;;;5066784;28;20194;-77
2021/05/26 03:16:33;;;;;;;18.17;6.37;;;11.50;99.90;;;;;;5089153;28;20195;-77
2021/05/26 03:18:59;;;;;;;18.93;7.07;;;11.50;99.90;;;;;;5092443;28;20203;-77
2021/05/26 03:21:27;;;;;;;18.90;7.03;;;11.50;99.90;;;;;;5052255;28;20182;-77
2021/05/26 03:24:21;;;;;;;18.53;6.63;;;11.50;99.90;;;;;;5085490;28;20544;-75
2021/05/26 03:26:47;;;;;;;19.27;7.30;;;11.50;99.90;;;;;;5085505;28;20179;-75
2021/05/26 03:29:13;;;;;;;18.63;5.80;;;11.60;99.90;;;;;;5089718;28;20183;-75
2021/05/26 03:31:39;;;;;;;17.73;5.87;;;11.70;99.90;;;;;;5089145;28;20184;-75
2021/05/26 03:34:05;;;;;;;15.30;4.97;;;11.70;99.90;;;;;;5074146;28;20285;-76
2021/05/26 03:36:31;;;;;;;13.93;4.30;;;11.60;99.90;;;;;;5083044;28;21335;-75
2021/05/26 03:38:56;;;;;;;12.43;4.00;;;11.70;99.90;;;;;;5070589;28;20199;-75
2021/05/26 03:41:23;;;;;;;10.77;3.50;;;11.60;99.90;;;;;;5077288;28;20176;-75
2021/05/26 03:43:49;;;;;;;10.93;3.40;;;11.70;99.90;;;;;;5084562;28;20175;-75
2021/05/26 03:46:16;;;;;;;9.73;2.83;;;11.60;99.90;;;;;;5071713;28;20176;-77
2021/05/26 03:48:42;;;;;;;10.00;2.83;;;11.60;99.90;;;;;;5094504;28;20190;-78
2021/05/26 03:51:07;;;;;;;10.13;3.10;;;11.70;99.90;;;;;;5056411;28;20184;-78
2021/05/26 03:53:36;;;;;;;8.00;2.57;;;11.70;99.90;;;;;;5073399;28;20192;-78
2021/05/26 03:56:09;;;;;;;8.40;2.90;;;11.70;99.90;;;;;;5074493;28;20660;-78
2021/05/26 03:58:49;;;;;;;7.40;2.80;;;11.70;99.90;;;;;;5075237;28;20203;-78
2021/05/26 04:01:23;;;;;;;8.00;2.47;;;11.70;99.90;;;;;;5088957;28;20206;-78
2021/05/26 04:03:49;;;;;;;8.13;2.77;;;11.80;99.90;;;;;;5093163;28;20179;-77
2021/05/26 04:06:15;;;;;;;7.13;2.70;;;11.80;99.90;;;;;;5071841;28;20189;-78
2021/05/26 04:08:41;;;;;;;10.03;2.67;;;11.90;99.90;;;;;;5092370;28;20271;-77
2021/05/26 04:11:07;;;;;;;7.47;2.50;;;11.90;99.90;;;;;;5075689;28;20217;-77
2021/05/26 04:13:53;;;;;;;9.10;2.70;;;11.90;99.90;;;;;;5039133;28;20203;-77
2021/05/26 04:16:37;;;;;;;8.60;3.00;;;11.80;99.90;;;;;;5089098;28;20264;-78
2021/05/26 04:19:28;;;;;;;9.67;3.00;;;11.80;99.90;;;;;;5078562;28;20272;-77
2021/05/26 04:21:56;;;;;;;8.93;3.57;;;11.90;99.90;;;;;;5072112;28;20190;-78
2021/05/26 04:24:24;;;;;;;10.40;3.60;;;11.90;99.90;;;;;;5072200;28;20274;-77
2021/05/26 04:26:52;;;;;;;8.93;3.47;;;12.00;99.90;;;;;;5071924;28;20241;-78
2021/05/26 04:29:19;;;;;;;10.07;3.60;;;11.90;99.90;;;;;;5072235;28;20182;-78
2021/05/26 04:31:48;;;;;;;7.83;3.53;;;11.90;99.90;;;;;;5074211;28;20539;-78
2021/05/26 04:34:14;;;;;;;8.80;3.53;;;12.00;99.90;;;;;;5087732;28;20187;-78
2021/05/26 04:36:40;;;;;;;8.47;3.30;;;12.00;99.90;;;;;;5070954;28;20753;-77
2021/05/26 04:39:06;;;;;;;7.33;3.53;;;12.00;99.90;;;;;;5087691;28;20234;-78
2021/05/26 04:41:33;;;;;;;8.53;3.57;;;12.00;99.90;;;;;;5089197;28;20230;-78
2021/05/26 04:43:59;;;;;;;8.13;3.17;;;12.10;99.90;;;;;;5077854;28;20724;-77
2021/05/26 04:46:25;;;;;;;7.80;3.80;;;12.10;99.90;;;;;;5072828;28;20794;-78
2021/05/26 04:48:50;;;;;;;9.03;3.33;;;12.00;99.90;;;;;;5059464;28;20203;-78
2021/05/26 04:51:16;;;;;;;8.40;3.43;;;11.90;99.90;;;;;;5065179;28;20202;-77
2021/05/26 04:53:42;;;;;;;8.13;3.57;;;11.90;99.90;;;;;;5070880;28;20745;-78
2021/05/26 04:56:08;;;;;;;7.70;3.53;;;11.90;99.90;;;;;;5082680;28;20298;-78
2021/05/26 04:58:33;;;;;;;9.67;3.60;;;12.10;99.90;;;;;;5054477;28;20286;-77
2021/05/26 05:01:00;;;;;;;9.00;3.73;;;12.10;99.90;;;;;;5091065;28;20203;-78
2021/05/26 05:03:25;;;;;;;9.80;3.60;;;12.10;99.90;;;;;;5089847;28;20218;-78
2021/05/26 05:05:51;;;;;;;8.53;3.57;;;12.20;99.90;;;;;;5074126;28;20203;-78
2021/05/26 05:08:17;;;;;;;9.13;3.47;;;12.20;99.90;;;;;;5074092;28;20625;-78
2021/05/26 05:10:42;;;;;;;8.40;3.33;;;12.20;99.90;;;;;;5073607;28;20193;-77
2021/05/26 05:13:09;;;;;;;11.60;4.27;;;12.30;99.90;;;;;;5072666;28;20512;-77
2021/05/26 05:15:34;;;;;;;10.43;4.23;;;12.40;99.90;;;;;;5071183;28;20187;-77
2021/05/26 05:18:00;;;;;;;12.47;4.50;;;12.30;99.90;;;;;;5092903;28;20191;-77
2021/05/26 05:20:26;;;;;;;11.13;4.50;;;12.30;99.90;;;;;;5089686;28;20240;-77
2021/05/26 05:22:54;;;;;;;12.17;4.97;;;12.30;99.90;;;;;;5089558;28;20282;-77
2021/05/26 05:25:20;;;;;;;12.67;4.63;;;12.40;99.90;;;;;;5072059;28;20179;-77
2021/05/26 05:27:46;;;;;;;11.63;5.13;;;12.30;99.90;;;;;;5091256;28;20236;-77
2021/05/26 05:30:12;;;;;;;12.10;5.10;;;12.50;99.90;;;;;;5072002;28;20175;-78
2021/05/26 05:32:38;;;;;;;13.73;4.60;;;12.50;99.90;;;;;;5087326;28;20202;-78
2021/05/26 05:35:05;;;;;;;13.70;4.93;;;12.50;99.90;;;;;;5070042;28;20717;-77
2021/05/26 05:37:31;;;;;;;11.73;4.60;;;12.50;99.90;;;;;;5093043;28;20702;-77
2021/05/26 05:39:57;;;;;;;11.07;4.07;;;12.60;99.90;;;;;;5088880;28;20217;-77
2021/05/26 05:42:22;;;;;;;10.03;3.50;;;12.60;99.90;;;;;;5089555;28;20195;-77
2021/05/26 05:44:48;;;;;;;8.67;3.37;;;12.70;99.90;;;;;;5090208;28;20183;-77
2021/05/26 05:47:15;;;;;;;10.37;3.90;;;12.80;99.90;;;;;;5092427;28;20188;-77
2021/05/26 05:49:40;;;;;;;7.40;3.20;;;12.90;99.90;;;;;;5088544;28;20217;-77
2021/05/26 05:52:10;;;;;;;8.20;3.17;;;13.00;99.90;;;;;;5089445;28;20181;-77
2021/05/26 05:54:35;;;;;;;9.30;3.20;;;13.10;99.90;;;;;;5086232;28;20196;-77
2021/05/26 05:57:02;;;;;;;8.80;3.10;;;13.30;99.90;;;;;;5087480;28;20225;-77
2021/05/26 05:59:28;;;;;;;12.33;3.97;;;13.30;99.90;;;;;;5054075;28;20247;-77
2021/05/26 06:01:54;;;;;;;9.20;3.93;;;13.30;99.90;;;;;;5068272;28;20183;-78
2021/05/26 06:04:19;;;;;;;9.00;3.50;;;13.40;99.90;;;;;;5071546;28;20169;-77
2021/05/26 06:06:45;;;;;;;9.60;3.87;;;13.50;99.90;;;;;;5072193;28;20180;-77
2021/05/26 06:09:11;;;;;;;11.43;4.20;;;13.60;99.90;;;;;;5072876;28;20190;-77
2021/05/26 06:11:37;;;;;;;10.30;4.67;;;13.70;99.90;;;;;;5070114;28;20209;-78
2021/05/26 06:14:06;;;;;;;11.60;4.60;;;13.70;99.90;;;;;;5072644;28;20197;-79
2021/05/26 06:16:36;;;;;;;12.43;4.97;;;13.70;99.90;;;;;;5065757;28;20205;-78
2021/05/26 06:19:03;;;;;;;12.80;5.40;;;13.70;99.90;;;;;;5052927;28;20658;-79
2021/05/26 06:21:29;;;;;;;13.53;5.53;;;13.80;99.90;;;;;;5092612;28;20173;-79
2021/05/26 06:23:55;;;;;;;13.07;5.53;;;13.90;99.90;;;;;;5067613;28;20308;-78
2021/05/26 06:26:21;;;;;;;13.40;5.97;;;14.00;99.90;;;;;;5069811;28;20228;-77
2021/05/26 06:28:47;;;;;;;13.47;5.67;;;14.10;99.90;;;;;;5083959;28;20170;-77
2021/05/26 06:31:14;;;;;;;14.17;5.83;;;14.20;99.90;;;;;;5086307;28;20190;-77
2021/05/26 06:33:44;;;;;;;13.60;5.50;;;14.20;99.90;;;;;;5088548;28;20192;-78
2021/05/26 06:36:10;;;;;;;12.43;5.00;;;14.20;99.90;;;;;;5055110;28;20199;-77
2021/05/26 06:38:37;;;;;;;15.03;5.90;;;13.70;99.90;;;;;;5069734;28;20263;-77
2021/05/26 06:41:03;;;;;;;12.63;4.37;;;13.70;99.90;;;;;;5069898;28;20191;-78
2021/05/26 06:43:29;;;;;;;10.73;4.03;;;13.70;99.90;;;;;;5072676;28;20666;-78
2021/05/26 06:45:55;;;;;;;8.27;3.27;;;13.40;99.90;;;;;;5090664;28;20192;-77
2021/05/26 06:48:21;;;;;;;6.47;2.90;;;13.40;99.90;;;;;;5089401;28;20207;-78
2021/05/26 06:50:51;;;;;;;10.13;3.40;;;13.40;99.90;;;;;;5077278;28;20197;-77
2021/05/26 06:53:17;;;;;;;8.93;2.90;;;13.20;99.90;;;;;;5070559;28;20200;-79
2021/05/26 06:55:42;;;;;;;6.93;2.57;;;13.20;99.90;;;;;;5087231;28;20185;-79
2021/05/26 06:58:08;;;;;;;6.97;2.60;;;13.30;99.90;;;;;;5052111;28;20204;-78
2021/05/26 07:00:34;;;;;;;7.00;2.30;;;13.40;99.90;;;;;;5071140;28;20659;-79
2021/05/26 07:03:01;;;;;;;10.70;3.27;;;13.30;99.90;;;;;;5087800;28;20700;-78
2021/05/26 07:05:27;;;;;;;6.27;2.57;;;13.30;99.90;;;;;;5089012;28;20204;-78
2021/05/26 07:07:54;;;;;;;5.33;2.60;;;13.50;99.90;;;;;;5073408;28;20229;-78
2021/05/26 07:10:20;;;;;;;6.57;2.60;;;13.60;99.90;;;;;;5085971;28;20198;-78
2021/05/26 07:12:47;;;;;;;5.70;2.47;;;13.80;99.90;;;;;;5072032;28;20189;-78
2021/05/26 07:15:14;;;;;;;5.47;2.47;;;13.90;99.90;;;;;;5088951;28;20189;-77
2021/05/26 07:17:40;;;;;;;5.23;2.40;;;14.20;99.90;;;;;;5088001;28;20213;-78
2021/05/26 07:20:06;;;;;;;6.33;2.13;;;14.30;99.90;;;;;;5085313;28;20220;-77
2021/05/26 07:22:32;;;;;;;3.30;1.87;;;14.60;99.90;;;;;;5070001;28;20201;-79
2021/05/26 07:24:59;;;;;;;4.60;1.90;;;14.70;99.90;;;;;;5088381;28;20216;-78
2021/05/26 07:27:25;;;;;;;3.13;1.60;;;14.70;99.90;;;;;;5089690;28;20183;-79
2021/05/26 07:29:50;;;;;;;3.30;1.80;;;14.80;99.90;;;;;;5086556;28;20194;-78
2021/05/26 07:32:16;;;;;;;3.43;1.60;;;15.20;99.90;;;;;;5072033;28;20226;-78
2021/05/26 07:34:42;;;;;;;3.47;1.50;;;15.60;99.90;;;;;;5067744;28;20195;-78
2021/05/26 07:37:08;;;;;;;4.17;1.90;;;15.70;99.90;;;;;;5087965;28;20236;-78
2021/05/26 07:39:37;;;;;;;3.30;1.53;;;16.00;99.90;;;;;;5087696;28;20279;-78
2021/05/26 07:42:07;;;;;;;2.30;1.37;;;16.50;99.90;;;;;;5069770;28;20194;-78
2021/05/26 07:44:34;;;;;;;4.77;1.30;;;17.60;99.90;;;;;;5084862;28;20234;-78
2021/05/26 07:47:00;;;;;;;2.70;1.10;;;17.20;99.90;;;;;;5068711;28;20190;-78
2021/05/26 07:49:26;;;;;;;2.47;1.20;;;16.90;99.90;;;;;;5091183;28;20213;-78
2021/05/26 07:51:54;;;;;;;4.00;1.40;;;16.90;99.90;;;;;;5063954;28;20194;-78
2021/05/26 07:54:23;;;;;;;3.20;1.40;;;16.80;99.90;;;;;;5089833;28;20189;-78
2021/05/26 07:56:50;;;;;;;4.33;1.57;;;16.30;99.90;;;;;;5073164;28;20215;-78
2021/05/26 07:59:16;;;;;;;5.60;1.53;;;16.20;99.90;;;;;;5087338;28;20217;-78
2021/05/26 08:01:42;;;;;;;5.13;2.00;;;16.10;99.90;;;;;;5073532;28;20177;-78
2021/05/26 08:04:11;;;;;;;7.43;2.13;;;15.80;99.90;;;;;;5087467;28;20189;-78
2021/05/26 08:06:37;;;;;;;6.50;1.83;;;16.10;99.90;;;;;;5070858;28;20280;-78
2021/05/26 08:09:04;;;;;;;4.33;1.93;;;16.90;99.90;;;;;;5085729;28;20275;-78
2021/05/26 08:11:30;;;;;;;2.97;1.40;;;18.90;99.90;;;;;;5072494;28;20221;-78
2021/05/26 08:13:57;;;;;;;6.40;1.70;;;22.30;99.90;;;;;;5086961;28;20647;-78
2021/05/26 08:16:24;;;;;;;4.90;1.80;;;25.10;99.90;;;;;;5088558;28;20665;-78
2021/05/26 08:18:50;;;;;;;4.80;1.50;;;23.70;99.90;;;;;;5073593;28;20248;-78
2021/05/26 08:21:16;;;;;;;5.53;1.33;;;23.60;99.90;;;;;;5086857;28;20186;-78
2021/05/26 08:23:42;;;;;;;4.03;1.40;;;22.50;99.90;;;;;;5094781;28;20670;-78
2021/05/26 08:26:11;;;;;;;4.63;1.70;;;23.10;99.90;;;;;;5088601;28;20735;-78
2021/05/26 08:28:38;;;;;;;4.20;1.63;;;22.10;99.90;;;;;;5089675;28;20189;-78
2021/05/26 08:31:03;;;;;;;7.30;1.83;;;22.00;99.90;;;;;;5091034;28;20188;-78
2021/05/26 08:33:29;;;;;;;5.57;2.00;;;20.40;99.90;;;;;;5089944;28;20195;-78
2021/05/26 08:35:54;;;;;;;5.27;1.70;;;20.90;99.90;;;;;;5092721;28;20189;-78
2021/05/26 08:38:20;;;;;;;5.37;1.63;;;24.70;99.90;;;;;;5087536;28;20236;-78
2021/05/26 08:40:46;;;;;;;3.43;1.70;;;23.30;99.00;;;;;;5073308;28;20213;-78
2021/05/26 08:43:16;;;;;;;4.87;1.87;;;24.10;98.90;;;;;;5088695;28;20646;-78
2021/05/26 08:45:41;;;;;;;5.70;2.00;;;25.20;95.90;;;;;;5088203;28;20297;-78
2021/05/26 08:48:09;;;;;;;6.40;1.90;;;27.40;94.70;;;;;;5090877;28;20360;-78
2021/05/26 08:50:35;;;;;;;4.13;1.80;;;26.70;93.40;;;;;;5090815;28;20202;-78
2021/05/26 08:53:00;;;;;;;7.00;2.17;;;26.40;90.20;;;;;;5089606;28;20195;-77
2021/05/26 08:55:28;;;;;;;4.97;1.77;;;25.80;91.00;;;;;;5074925;28;20190;-78
2021/05/26 08:57:58;;;;;;;7.20;2.40;;;26.20;90.30;;;;;;5097704;28;20534;-78
2021/05/26 09:00:24;;;;;;;6.47;2.73;;;25.00;91.80;;;;;;5090222;28;20180;-78
2021/05/26 09:02:49;;;;;;;6.13;2.70;;;23.60;93.60;;;;;;5092738;28;20182;-78
2021/05/26 09:05:27;;;;;;;6.70;2.67;;;20.60;96.20;;;;;;5089553;28;20171;-78
2021/05/26 09:07:53;;;;;;;9.50;3.30;;;18.80;99.90;;;;;;5093978;28;20247;-79
2021/05/26 09:10:19;;;;;;;7.13;3.27;;;17.70;99.90;;;;;;5066693;28;20192;-78
2021/05/26 09:12:45;;;;;;;7.53;3.43;;;17.40;99.90;;;;;;5092059;28;20534;-78
2021/05/26 09:15:13;;;;;;;7.53;3.20;;;16.80;99.90;;;;;;5094560;28;20181;-78
2021/05/26 09:17:39;;;;;;;9.13;3.50;;;16.40;99.90;;;;;;5071048;28;20202;-78
2021/05/26 09:20:11;;;;;;;9.93;3.80;;;16.00;99.90;;;;;;5073525;28;20257;-78
2021/05/26 09:22:37;;;;;;;7.93;3.60;;;16.00;99.90;;;;;;5090034;28;20196;-78
2021/05/26 09:25:08;;;;;;;13.23;4.40;;;16.10;99.90;;;;;;5092325;28;20181;-78
2021/05/26 09:27:33;;;;;;;9.63;4.37;;;16.80;99.90;;;;;;5093250;28;20639;-78
2021/05/26 09:29:59;;;;;;;9.03;3.97;;;17.80;99.90;;;;;;5089867;28;20181;-78
2021/05/26 09:32:31;;;;;;;10.17;4.27;;;19.00;99.90;;;;;;5092355;28;20205;-78
2021/05/26 09:35:00;;;;;;;8.90;3.60;;;20.70;99.90;;;;;;5087396;28;20223;-78
2021/05/26 09:37:31;;;;;;;10.40;3.60;;;21.10;99.90;;;;;;5089314;28;20558;-78
2021/05/26 09:40:06;;;;;;;7.70;3.30;;;20.30;99.90;;;;;;5070625;28;20210;-78
2021/05/26 09:42:36;;;;;;;9.20;3.80;;;20.40;99.90;;;;;;5071413;28;20568;-78
2021/05/26 09:45:15;;;;;;;10.83;4.13;;;20.20;99.90;;;;;;5071536;28;20510;-78
2021/05/26 09:47:51;;;;;;;10.80;4.40;;;19.00;99.90;;;;;;5072303;28;20207;-79
2021/05/26 09:50:34;;;;;;;11.20;4.53;;;18.40;99.90;;;;;;5076014;28;20190;-78
2021/05/26 09:53:19;;;;;;;10.60;5.10;;;17.60;99.90;;;;;;5070393;28;20213;-78
2021/05/26 09:55:48;;;;;;;9.43;5.40;;;16.50;99.90;;;;;;5090826;28;20324;-78
2021/05/26 09:58:16;;;;;;;11.40;6.33;;;17.50;99.90;;;;;;5068679;28;20253;-78
2021/05/26 10:00:46;;;;;;;12.87;5.93;;;18.60;99.90;;;;;;5089414;28;20199;-78
2021/05/26 10:03:12;;;;;;;12.07;6.10;;;17.70;99.90;;;;;;5072994;28;20235;-78
2021/05/26 10:05:38;;;;;;;10.53;5.77;;;17.60;99.90;;;;;;5088462;28;20759;-78
2021/05/26 10:08:25;;;;;;;11.47;6.63;;;17.60;99.90;;;;;;5073783;28;20209;-78
2021/05/26 10:11:10;;;;;;;11.77;7.57;;;17.60;99.90;;;;;;5089494;28;20325;-78
2021/05/26 10:13:43;;;;;;;13.63;6.93;;;18.70;99.90;;;;;;5073092;28;20182;-78
2021/05/26 10:16:09;;;;;;;12.70;6.47;;;19.90;99.90;;;;;;5070250;28;20595;-78
2021/05/26 10:18:36;;;;;;;10.03;5.93;;;21.20;99.90;;;;;;5086591;28;20203;-79
2021/05/26 10:21:03;;;;;;;12.40;5.87;;;22.20;99.90;;;;;;5082508;28;20737;-78
2021/05/26 10:23:29;;;;;;;9.53;5.50;;;23.40;99.90;;;;;;5070061;28;20177;-78
2021/05/26 10:25:54;;;;;;;11.07;5.70;;;21.10;99.90;;;;;;5089603;28;20602;-78
2021/05/26 10:28:32;;;;;;;10.33;6.03;;;20.80;99.90;;;;;;5069355;28;20196;-78
2021/05/26 10:31:03;;;;;;;10.57;5.90;;;21.60;99.90;;;;;;5091455;28;20240;-78
2021/05/26 10:33:50;;;;;;;10.93;5.63;;;22.70;99.90;;;;;;5087104;28;20180;-78
2021/05/26 10:36:16;;;;;;;10.63;5.03;;;23.20;99.90;;;;;;5073165;28;20177;-78
2021/05/26 10:39:00;;;;;;;18.90;5.10;;;24.00;99.70;;;;;;5068815;28;20245;-77
2021/05/26 10:41:46;;;;;;;9.07;4.67;;;23.60;99.90;;;;;;5086486;28;20268;-78
2021/05/26 10:44:12;;;;;;;9.67;4.67;;;24.20;99.50;;;;;;5065911;28;20190;-77
2021/05/26 10:46:39;;;;;;;10.90;3.77;;;25.20;99.50;;;;;;5089461;28;20185;-78
2021/05/26 10:49:07;;;;;;;10.30;3.50;;;23.00;94.20;;;;;;5072374;28;20243;-78
2021/05/26 10:51:51;;;;;;;8.13;3.67;;;22.10;96.10;;;;;;5088483;28;20178;-78
2021/05/26 10:54:46;;;;;;;7.83;3.47;;;23.90;96.00;;;;;;5088754;28;20218;-78
2021/05/26 10:57:12;;;;;;;10.03;4.17;;;24.30;96.20;;;;;;5033023;28;20195;-77
2021/05/26 10:59:39;;;;;;;8.83;4.27;;;23.90;93.70;;;;;;5090346;28;20209;-77
2021/05/26 11:02:05;;;;;;;10.73;5.10;;;22.60;95.80;;;;;;5067729;28;20261;-77
2021/05/26 11:04:32;;;;;;;11.57;5.03;;;20.70;98.80;;;;;;5069140;28;20187;-77
2021/05/26 11:07:29;;;;;;;15.63;5.87;;;19.80;99.90;;;;;;5092605;28;20644;-77
2021/05/26 11:10:02;;;;;;;12.00;6.47;;;18.90;99.90;;;;;;5071424;28;20643;-77
2021/05/26 11:12:49;;;;;;;17.77;8.63;;;18.20;99.90;;;;;;5068475;28;20196;-78
2021/05/26 11:15:39;;;;;;;10.37;6.70;;;18.20;99.90;;;;;;5087227;28;20190;-78
2021/05/26 11:20:44;;;;;;;12.73;7.50;;;18.50;99.90;;;;;;5087035;28;20190;-78
2021/05/26 11:23:12;;;;;;;10.90;7.27;;;18.50;99.90;;;;;;5072337;28;20198;-78
2021/05/26 11:25:37;;;;;;;15.27;8.33;;;18.40;99.90;;;;;;5088110;28;20653;-78
2021/05/26 11:28:03;;;;;;;13.87;8.30;;;17.10;99.90;;;;;;5088124;28;20268;-78
2021/05/26 11:30:29;;;;;;;13.93;7.80;;;17.40;99.90;;;;;;5085663;28;20268;-77
2021/05/26 11:32:56;;;;;;;18.20;9.90;;;17.70;99.90;;;;;;5086983;28;20189;-77
2021/05/26 11:35:22;;;;;;;16.50;9.80;;;18.10;99.90;;;;;;5069775;28;20175;-78
2021/05/26 11:37:48;;;;;;;8.53;4.00;;;18.30;99.90;;;;;;5084794;28;20229;-78
2021/05/26 11:40:23;;;;;;;9.77;3.33;;;17.40;99.90;;;;;;5087370;28;20190;-78
2021/05/26 11:42:49;;;;;;;7.33;3.37;;;17.70;99.90;;;;;;5072698;28;20222;-78
2021/05/26 11:45:15;;;;;;;10.40;3.50;;;18.50;99.90;;;;;;5085973;28;20198;-78
2021/05/26 11:47:42;;;;;;;11.97;3.70;;;19.90;99.90;;;;;;5090264;28;20179;-77
2021/05/26 11:50:16;;;;;;;12.87;4.00;;;18.90;99.90;;;;;;5084707;28;20227;-77
2021/05/26 11:52:50;;;;;;;10.53;3.20;;;18.40;99.90;;;;;;5093608;28;20193;-78
2021/05/26 11:55:21;;;;;;;7.73;2.70;;;17.90;99.90;;;;;;5089114;28;20206;-78
2021/05/26 11:57:49;;;;;;;8.37;2.47;;;17.70;99.90;;;;;;5089167;28;20243;-78
2021/05/26 12:00:29;;;;;;;8.27;2.20;;;18.50;99.90;;;;;;5090396;28;20191;-78
2021/05/26 12:03:09;;;;;;;6.53;1.80;;;18.70;99.90;;;;;;5089940;28;20230;-78
2021/05/26 12:05:52;;;;;;;6.30;1.53;;;18.60;99.90;;;;;;5091401;28;20189;-74
2021/05/26 12:08:21;;;;;;;7.30;1.70;;;18.50;99.90;;;;;;5093008;28;20185;-77
2021/05/26 12:11:04;;;;;;;3.83;1.37;;;18.40;99.90;;;;;;5095136;28;20218;-77
2021/05/26 12:13:41;;;;;;;3.73;1.47;;;17.90;99.90;;;;;;5090787;28;20188;-77
2021/05/26 12:16:09;;;;;;;6.43;1.80;;;17.20;99.90;;;;;;5090952;28;20203;-73
2021/05/26 12:18:37;;;;;;;7.47;1.63;;;16.90;99.90;;;;;;5085731;28;20296;-74
2021/05/26 12:21:03;;;;;;;4.43;1.40;;;16.90;99.90;;;;;;5089721;28;20173;-74
2021/05/26 12:23:34;;;;;;;6.93;1.60;;;17.00;99.90;;;;;;5069847;28;20544;-74
2021/05/26 12:26:20;;;;;;;5.77;1.70;;;17.00;99.90;;;;;;5089017;28;20310;-73
2021/05/26 12:28:46;;;;;;;5.20;1.60;;;16.90;99.90;;;;;;5082531;28;20189;-74
2021/05/26 12:31:13;;;;;;;3.70;1.40;;;17.20;99.90;;;;;;5088031;28;20538;-74
2021/05/26 12:33:45;;;;;;;4.67;1.40;;;16.90;99.90;;;;;;5089860;28;20639;-74
2021/05/26 12:36:10;;;;;;;4.97;1.53;;;17.00;99.90;;;;;;5090347;28;20275;-74
2021/05/26 12:38:41;;;;;;;6.67;1.80;;;16.80;99.90;;;;;;5070584;28;20304;-73
2021/05/26 12:41:29;;;;;;;5.37;1.93;;;16.70;99.90;;;;;;5087480;28;20242;-73
2021/05/26 12:43:56;;;;;;;8.60;2.20;;;16.60;99.90;;;;;;5091238;28;20237;-74
2021/05/26 12:46:41;;;;;;;9.00;2.67;;;16.80;99.90;;;;;;5090280;28;20194;-75
2021/05/26 12:49:27;;;;;;;4.97;2.00;;;16.80;99.90;;;;;;5068588;28;20279;-73
2021/05/26 12:51:54;;;;;;;5.83;2.70;;;16.30;99.90;;;;;;5067060;28;20190;-74
2021/05/26 12:54:20;;;;;;;6.17;2.40;;;16.30;99.90;;;;;;5088690;28;20203;-73
2021/05/26 12:56:46;;;;;;;7.63;2.83;;;16.00;99.90;;;;;;5087372;28;20627;-73